createdAt,value
2022-12-20T00:00:26.773Z,99192.19
2022-12-20T00:02:31.423Z,99202.72
2022-12-20T00:04:35.808Z,99212.31
2022-12-20T00:06:41.781Z,99213.16
2022-12-20T00:08:46.799Z,99202.59
2022-12-20T00:10:51.579Z,99209.56
2022-12-20T00:12:55.529Z,99212.91
2022-12-20T00:15:01.294Z,99213.63
2022-12-20T00:17:05.962Z,99207.16
2022-12-20T00:19:13.238Z,99205.47
2022-12-20T00:21:17.752Z,99212.44
2022-12-20T00:23:21.936Z,99209.06
2022-12-20T00:25:26.547Z,99210.75
2022-12-20T00:27:30.605Z,99203.66
2022-12-20T00:29:35.909Z,99207.03
2022-12-20T00:31:42.093Z,99211.22
2022-12-20T00:33:53.268Z,99202.47
2022-12-20T00:36:01.434Z,99211.34
2022-12-20T00:38:05.772Z,99215.78
2022-12-20T00:40:11.461Z,99209.66
2022-12-20T00:42:15.914Z,99203.53
2022-12-20T00:44:22.720Z,99196.34
2022-12-20T00:46:28.053Z,99199.94
2022-12-20T00:48:34.907Z,99204.28
2022-12-20T00:50:39.328Z,99204.97
2022-12-20T00:52:43.662Z,99202.25
2022-12-20T00:54:48.268Z,99199.47
2022-12-20T00:56:52.445Z,99195.88
2022-12-20T00:58:56.959Z,99201.16
2022-12-20T01:01:01.385Z,99204.50
2022-12-20T01:03:06.705Z,99208.81
2022-12-20T01:05:12.645Z,99212.28
2022-12-20T01:07:17.335Z,99216.59
2022-12-20T01:09:22.939Z,99206.88
2022-12-20T01:11:29.806Z,99211.47
2022-12-20T01:13:37.178Z,99216.72
2022-12-20T01:15:42.431Z,99216.47
2022-12-20T01:17:46.958Z,99212.91
2022-12-20T01:19:51.253Z,99220.56
2022-12-20T01:21:57.596Z,99227.25
2022-12-20T01:24:01.800Z,99212.16
2022-12-20T01:26:10.523Z,99212.03
2022-12-20T01:28:15.964Z,99207.47
2022-12-20T01:30:20.960Z,99210.84
2022-12-20T01:32:27.570Z,99218.75
2022-12-20T01:34:31.861Z,99210.84
2022-12-20T01:36:38.743Z,99223.16
2022-12-20T01:38:45.552Z,99212.63
2022-12-20T01:40:49.651Z,99221.38
2022-12-20T01:42:53.700Z,99231.94
2022-12-20T01:45:02.564Z,99235.53
2022-12-20T01:47:07.727Z,99233.72
2022-12-20T01:49:15.975Z,99228.44
2022-12-20T01:51:21.951Z,99228.44
2022-12-20T01:53:27.641Z,99243.56
2022-12-20T01:55:34.919Z,99238.56
2022-12-20T01:57:47.699Z,99242.97
2022-12-20T01:59:54.396Z,99245.72
2022-12-20T02:02:01.069Z,99230.97
2022-12-20T02:04:05.794Z,99245.03
2022-12-20T02:06:18.754Z,99245.03
2022-12-20T02:08:23.318Z,99235.44
2022-12-20T02:10:40.763Z,99239.97
2022-12-20T02:12:46.567Z,99229.66
2022-12-20T02:15:04.813Z,99228.00
2022-12-20T02:17:25.719Z,99230.75
2022-12-20T02:20:12.256Z,99225.59
2022-12-20T02:22:28.043Z,99232.81
2022-12-20T02:24:56.778Z,99233.88
2022-12-20T02:27:32.241Z,99237.47
2022-12-20T02:29:40.449Z,99231.25
2022-12-20T02:31:52.284Z,99227.06
2022-12-20T02:34:00.208Z,99234.09
2022-12-20T02:36:05.863Z,99233.28
2022-12-20T02:38:29.626Z,99242.88
2022-12-20T02:40:39.196Z,99239.38
2022-12-20T02:42:44.110Z,99227.06
2022-12-20T02:45:09.470Z,99225.38
2022-12-20T02:47:20.305Z,99226.31
2022-12-20T02:49:30.953Z,99228.00
2022-12-20T02:51:36.449Z,99231.59
2022-12-20T02:53:43.003Z,99223.81
2022-12-20T02:55:58.968Z,99224.63
2022-12-20T02:58:11.864Z,99234.34
2022-12-20T03:00:18.666Z,99222.97
2022-12-20T03:02:25.895Z,99231.72
2022-12-20T03:04:33.226Z,99236.28
2022-12-20T03:06:37.208Z,99233.03
2022-12-20T03:08:42.214Z,99230.53
2022-12-20T03:10:46.796Z,99233.16
2022-12-20T03:12:50.997Z,99233.16
2022-12-20T03:14:55.531Z,99227.03
2022-12-20T03:16:59.723Z,99225.38
2022-12-20T03:19:04.940Z,99231.59
2022-12-20T03:21:08.762Z,99236.03
2022-12-20T03:23:12.461Z,99233.50
2022-12-20T03:25:16.580Z,99228.34
2022-12-20T03:27:20.168Z,99231.13
2022-12-20T03:29:24.121Z,99231.13
2022-12-20T03:31:27.703Z,99235.56
2022-12-20T03:33:32.063Z,99239.97
2022-12-20T03:35:39.530Z,99231.34
2022-12-20T03:37:43.796Z,99234.94
2022-12-20T03:39:48.087Z,99239.25
2022-12-20T03:41:51.735Z,99240.22
2022-12-20T03:43:55.618Z,99236.88
2022-12-20T03:46:00.125Z,99236.03
2022-12-20T03:48:05.158Z,99235.19
2022-12-20T03:50:10.811Z,99237.94
2022-12-20T03:52:16.741Z,99232.81
2022-12-20T03:54:20.383Z,99239.84
2022-12-20T03:56:40.145Z,99233.88
2022-12-20T03:58:43.650Z,99246.19
2022-12-20T04:00:47.708Z,99249.81
2022-12-20T04:03:17.879Z,99248.81
2022-12-20T04:05:22.317Z,99247.16
2022-12-20T04:07:27.919Z,99255.06
2022-12-20T04:09:31.451Z,99253.41
2022-12-20T04:11:41.686Z,99255.06
2022-12-20T04:13:51.607Z,99267.28
2022-12-20T04:16:00.315Z,99260.22
2022-12-20T04:18:07.703Z,99258.41
2022-12-20T04:20:20.064Z,99263.69
2022-12-20T04:22:32.328Z,99265.38
2022-12-20T04:24:41.801Z,99270.78
2022-12-20T04:26:57.048Z,99261.19
2022-12-20T04:29:01.355Z,99264.63
2022-12-20T04:31:05.920Z,99271.84
2022-12-20T04:33:13.837Z,99273.75
2022-12-20T04:35:19.050Z,99274.72
2022-12-20T04:37:23.881Z,99277.34
2022-12-20T04:39:32.509Z,99274.94
2022-12-20T04:41:50.984Z,99274.22
2022-12-20T04:43:58.089Z,99269.06
2022-12-20T04:46:09.892Z,99283.06
2022-12-20T04:48:54.682Z,99274.56
2022-12-20T04:50:39.101Z,99279.94
2022-12-20T04:53:01.095Z,99269.66
2022-12-20T04:55:09.159Z,99280.19
2022-12-20T04:57:13.796Z,99288.91
2022-12-20T04:59:18.270Z,99288.09
2022-12-20T05:01:25.641Z,99287.13
2022-12-20T05:03:31.004Z,99288.81
2022-12-20T05:05:35.372Z,99300.31
2022-12-20T05:07:39.879Z,99300.31
2022-12-20T05:09:45.659Z,99310.97
2022-12-20T05:11:51.840Z,99291.78
2022-12-20T05:13:56.047Z,99309.41
2022-12-20T05:16:01.295Z,99302.44
2022-12-20T05:18:09.530Z,99294.44
2022-12-20T05:20:26.786Z,99306.53
2022-12-20T05:22:48.960Z,99314.09
2022-12-20T05:25:10.635Z,99317.56
2022-12-20T05:27:18.211Z,99308.59
2022-12-20T05:29:22.694Z,99309.56
2022-12-20T05:31:27.461Z,99307.63
2022-12-20T05:33:34.327Z,99304.16
2022-12-20T05:35:40.166Z,99306.78
2022-12-20T05:37:48.850Z,99307.88
2022-12-20T05:39:56.334Z,99303.66
2022-12-20T05:42:01.757Z,99316.13
2022-12-20T05:44:09.057Z,99304.97
2022-12-20T05:46:16.142Z,99306.78
2022-12-20T05:48:38.186Z,99318.25
2022-12-20T05:50:44.489Z,99301.75
2022-12-20T05:53:11.572Z,99322.06
2022-12-20T05:55:23.110Z,99322.91
2022-12-20T05:57:27.916Z,99329.16
2022-12-20T05:59:35.260Z,99330.09
2022-12-20T06:01:42.479Z,99325.78
2022-12-20T06:03:47.780Z,99320.38
2022-12-20T06:05:55.084Z,99324.00
2022-12-20T06:08:04.819Z,99330.09
2022-12-20T06:10:12.027Z,99325.78
2022-12-20T06:12:30.062Z,99331.28
2022-12-20T06:14:35.828Z,99330.53
2022-12-20T06:16:40.680Z,99323.50
2022-12-20T06:18:47.323Z,99324.56
2022-12-20T06:20:52.975Z,99335.22
2022-12-20T06:23:00.726Z,99326.56
2022-12-20T06:25:12.763Z,99323.22
2022-12-20T06:27:18.847Z,99321.53
2022-12-20T06:29:29.349Z,99325.84
2022-12-20T06:31:42.811Z,99336.41
2022-12-20T06:33:47.134Z,99334.81
2022-12-20T06:35:54.185Z,99332.31
2022-12-20T06:38:00.030Z,99339.47
2022-12-20T06:40:09.379Z,99340.31
2022-12-20T06:42:14.266Z,99342.09
2022-12-20T06:44:21.302Z,99341.38
2022-12-20T06:46:27.865Z,99338.75
2022-12-20T06:48:34.746Z,99334.06
2022-12-20T06:50:39.615Z,99334.19
2022-12-20T06:52:44.487Z,99344.72
2022-12-20T06:54:48.757Z,99337.88
2022-12-20T06:56:52.831Z,99341.50
2022-12-20T06:58:57.256Z,99349.50
2022-12-20T07:01:01.418Z,99355.72
2022-12-20T07:03:06.510Z,99356.78
2022-12-20T07:05:12.491Z,99362.88
2022-12-20T07:07:17.513Z,99366.47
2022-12-20T07:09:22.167Z,99350.91
2022-12-20T07:11:27.312Z,99370.28
2022-12-20T07:13:32.258Z,99370.28
2022-12-20T07:15:37.390Z,99370.28
2022-12-20T07:17:42.104Z,99368.63
2022-12-20T07:19:50.763Z,99373.03
2022-12-20T07:21:57.085Z,99382.72
2022-12-20T07:24:02.004Z,99377.34
2022-12-20T07:26:06.725Z,99369.56
2022-12-20T07:28:12.732Z,99372.41
2022-12-20T07:30:17.237Z,99369.03
2022-12-20T07:32:21.401Z,99375.13
2022-12-20T07:34:25.759Z,99382.31
2022-12-20T07:36:29.914Z,99375.25
2022-12-20T07:38:36.584Z,99375.13
2022-12-20T07:40:43.649Z,99386.53
2022-12-20T07:42:49.042Z,99384.72
2022-12-20T07:44:53.128Z,99392.63
2022-12-20T07:46:57.351Z,99393.56
2022-12-20T07:49:01.761Z,99402.31
2022-12-20T07:51:10.387Z,99412.84
2022-12-20T07:53:14.769Z,99409.28
2022-12-20T07:55:21.138Z,99413.69
2022-12-20T07:57:31.551Z,99399.81
2022-12-20T07:59:40.529Z,99406.84
2022-12-20T08:01:47.188Z,99418.94
2022-12-20T08:03:58.522Z,99402.56
2022-12-20T08:06:07.915Z,99410.44
2022-12-20T08:08:12.833Z,99414.97
2022-12-20T08:10:20.340Z,99421.06
2022-12-20T08:12:30.790Z,99423.81
2022-12-20T08:14:35.307Z,99428.34
2022-12-20T08:16:40.049Z,99431.00
2022-12-20T08:18:45.057Z,99437.19
2022-12-20T08:20:50.010Z,99440.78
2022-12-20T08:22:54.447Z,99443.50
2022-12-20T08:24:58.633Z,99449.84
2022-12-20T08:27:03.122Z,99447.31
2022-12-20T08:29:09.503Z,99444.78
2022-12-20T08:31:14.487Z,99449.34
2022-12-20T08:33:19.962Z,99454.69
2022-12-20T08:35:25.414Z,99436.38
2022-12-20T08:37:30.115Z,99463.66
2022-12-20T08:39:35.526Z,99470.59
2022-12-20T08:41:40.705Z,99474.81
2022-12-20T08:43:45.951Z,99459.88
2022-12-20T08:45:57.059Z,99459.88
2022-12-20T08:48:01.193Z,99479.13
2022-12-20T08:50:05.996Z,99470.41
2022-12-20T08:52:09.767Z,99462.56
2022-12-20T08:54:13.768Z,99470.59
2022-12-20T08:56:20.248Z,99477.66
2022-12-20T08:58:24.082Z,99476.91
2022-12-20T09:00:28.871Z,99481.13
2022-12-20T09:02:34.497Z,99485.22
2022-12-20T09:04:38.528Z,99484.06
2022-12-20T09:06:43.526Z,99481.22
2022-12-20T09:08:47.712Z,99481.31
2022-12-20T09:10:51.757Z,99478.78
2022-12-20T09:12:55.333Z,99477.31
2022-12-20T09:14:59.085Z,99489.66
2022-12-20T09:17:03.701Z,99487.13
2022-12-20T09:19:08.916Z,99498.59
2022-12-20T09:21:13.757Z,99490.81
2022-12-20T09:23:17.665Z,99492.63
2022-12-20T09:25:21.421Z,99488.28
2022-12-20T09:27:25.567Z,99479.53
2022-12-20T09:29:35.245Z,99489.34
2022-12-20T09:31:39.443Z,99483.13
2022-12-20T09:33:44.250Z,99489.00
2022-12-20T09:35:49.727Z,99498.59
2022-12-20T09:37:53.606Z,99498.59
2022-12-20T09:39:57.420Z,99502.16
2022-12-20T09:42:01.577Z,99505.56
2022-12-20T09:44:13.879Z,99502.06
2022-12-20T09:46:18.306Z,99507.44
2022-12-20T09:48:25.225Z,99511.03
2022-12-20T09:50:42.172Z,99519.53
2022-12-20T09:53:03.574Z,99514.91
2022-12-20T09:55:18.555Z,99518.16
2022-12-20T09:57:32.391Z,99537.22
2022-12-20T09:59:44.462Z,99538.00
2022-12-20T10:01:52.002Z,99545.78
2022-12-20T10:03:58.236Z,99547.53
2022-12-20T10:06:11.811Z,99540.50
2022-12-20T10:08:28.248Z,99553.56
2022-12-20T10:10:54.561Z,99557.13
2022-12-20T10:13:07.884Z,99561.47
2022-12-20T10:15:19.878Z,99571.88
2022-12-20T10:17:37.442Z,99559.53
2022-12-20T10:20:00.782Z,99544.50
2022-12-20T10:22:12.681Z,99573.47
2022-12-20T10:24:20.579Z,99570.84
2022-12-20T10:26:24.895Z,99580.63
2022-12-20T10:28:30.655Z,99577.16
2022-12-20T10:30:36.532Z,99571.66
2022-12-20T10:32:40.362Z,99572.53
2022-12-20T10:34:53.272Z,99573.34
2022-12-20T10:37:14.827Z,99588.81
2022-12-20T10:39:40.860Z,99574.41
2022-12-20T10:41:52.499Z,99584.50
2022-12-20T10:44:00.489Z,99574.63
2022-12-20T10:46:08.044Z,99570.94
2022-12-20T10:48:29.931Z,99574.19
2022-12-20T10:50:34.050Z,99572.28
2022-12-20T10:52:38.002Z,99573.75
2022-12-20T10:54:45.447Z,99575.22
2022-12-20T10:56:56.960Z,99575.00
2022-12-20T10:59:03.038Z,99573.13
2022-12-20T11:01:17.631Z,99581.63
2022-12-20T11:03:24.972Z,99569.09
2022-12-20T11:05:29.446Z,99570.56
2022-12-20T11:07:35.939Z,99562.53
2022-12-20T11:09:39.505Z,99563.38
2022-12-20T11:11:59.608Z,99555.16
2022-12-20T11:14:16.677Z,99582.22
2022-12-20T11:16:31.528Z,99563.53
2022-12-20T11:18:45.842Z,99567.66
2022-12-20T11:20:58.828Z,99566.81
2022-12-20T11:23:17.420Z,99561.44
2022-12-20T11:25:50.596Z,99574.50
2022-12-20T11:28:11.155Z,99566.59
2022-12-20T11:30:21.655Z,99566.50
2022-12-20T11:32:40.571Z,99574.31
2022-12-20T11:34:54.904Z,99565.22
2022-12-20T11:37:20.022Z,99556.34
2022-12-20T11:39:32.470Z,99559.72
2022-12-20T11:41:45.180Z,99558.75
2022-12-20T11:46:41.986Z,99563.81
2022-12-20T11:49:03.357Z,99570.03
2022-12-20T11:51:22.872Z,99567.41
2022-12-20T11:53:36.834Z,99567.28
2022-12-20T11:55:44.808Z,99568.97
2022-12-20T12:00:23.568Z,99552.50
2022-12-20T12:02:36.245Z,99554.31
2022-12-20T12:04:46.687Z,99543.91
2022-12-20T12:06:55.630Z,99548.22
2022-12-20T12:09:13.936Z,99557.78
2022-12-20T12:13:46.534Z,99553.38
2022-12-20T12:15:58.825Z,99549.16
2022-12-20T12:18:08.645Z,99550.00
2022-12-20T12:20:27.151Z,99549.16
2022-12-20T12:22:36.361Z,99542.19
2022-12-20T12:24:45.326Z,99545.59
2022-12-20T12:26:49.359Z,99550.84
2022-12-20T12:28:56.360Z,99547.25
2022-12-20T12:31:06.161Z,99542.09
2022-12-20T12:33:23.937Z,99534.28
2022-12-20T12:35:52.834Z,99546.00
2022-12-20T12:38:06.602Z,99528.50
2022-12-20T12:40:39.490Z,99537.38
2022-12-20T12:43:13.655Z,99545.41
2022-12-20T12:45:22.403Z,99538.34
2022-12-20T12:47:38.816Z,99532.13
2022-12-20T12:49:43.034Z,99529.47
2022-12-20T12:51:55.860Z,99525.16
2022-12-20T12:54:18.994Z,99531.25
2022-12-20T12:56:44.454Z,99529.59
2022-12-20T12:59:12.268Z,99539.41
2022-12-20T13:01:50.566Z,99529.69
2022-12-20T13:04:24.975Z,99540.34
2022-12-20T13:07:05.358Z,99534.25
2022-12-20T13:09:21.037Z,99534.25
2022-12-20T13:11:33.046Z,99531.59
2022-12-20T13:13:36.693Z,99528.97
2022-12-20T13:16:07.693Z,99528.22
2022-12-20T13:18:29.700Z,99527.28
2022-12-20T13:20:37.953Z,99516.72
2022-12-20T13:22:42.191Z,99536.00
2022-12-20T13:24:58.451Z,99529.78
2022-12-20T13:27:04.192Z,99533.28
2022-12-20T13:29:26.412Z,99537.81
2022-12-20T13:31:37.811Z,99534.25
2022-12-20T13:33:44.379Z,99532.53
2022-12-20T13:36:35.697Z,99533.38
2022-12-20T13:38:51.152Z,99529.78
2022-12-20T13:40:59.940Z,99530.66
2022-12-20T13:43:09.772Z,99530.66
2022-12-20T13:45:16.263Z,99520.13
2022-12-20T13:47:40.998Z,99521.06
2022-12-20T13:49:45.901Z,99534.25
2022-12-20T13:51:51.134Z,99536.88
2022-12-20T13:53:59.171Z,99527.28
2022-12-20T13:56:33.579Z,99530.03
2022-12-20T13:58:37.250Z,99536.13
2022-12-20T14:00:41.493Z,99533.59
2022-12-20T14:02:46.790Z,99528.34
2022-12-20T14:04:59.925Z,99531.09
2022-12-20T14:07:05.328Z,99524.97
2022-12-20T14:09:29.944Z,99536.47
2022-12-20T14:11:33.859Z,99535.72
2022-12-20T14:13:37.603Z,99537.53
2022-12-20T14:15:41.343Z,99528.78
2022-12-20T14:17:45.107Z,99538.47
2022-12-20T14:19:48.897Z,99538.59
2022-12-20T14:21:52.823Z,99546.50
2022-12-20T14:24:00.896Z,99538.69
2022-12-20T14:26:05.124Z,99539.66
2022-12-20T14:28:26.530Z,99540.63
2022-12-20T14:30:36.845Z,99536.28
2022-12-20T14:32:40.586Z,99538.94
2022-12-20T14:34:45.089Z,99531.03
2022-12-20T14:36:52.042Z,99535.56
2022-12-20T14:38:57.733Z,99536.53
2022-12-20T14:41:01.473Z,99538.19
2022-12-20T14:43:16.823Z,99540.00
2022-12-20T14:45:25.866Z,99534.84
2022-12-20T14:47:30.275Z,99559.59
2022-12-20T14:49:35.660Z,99550.88
2022-12-20T14:51:40.781Z,99547.59
2022-12-20T14:53:47.767Z,99545.06
2022-12-20T14:55:53.269Z,99557.50
2022-12-20T14:57:58.348Z,99553.41
2022-12-20T15:00:07.488Z,99562.25
2022-12-20T15:02:37.770Z,99570.25
2022-12-20T15:04:41.696Z,99570.25
2022-12-20T15:06:48.556Z,99571.31
2022-12-20T15:08:52.153Z,99569.75
2022-12-20T15:11:03.884Z,99563.75
2022-12-20T15:13:13.459Z,99580.50
2022-12-20T15:15:29.184Z,99577.03
2022-12-20T15:17:33.554Z,99579.88
2022-12-20T15:19:41.973Z,99588.72
2022-12-20T15:21:47.526Z,99590.53
2022-12-20T15:23:53.813Z,99607.38
2022-12-20T15:26:01.304Z,99593.34
2022-12-20T15:28:14.720Z,99601.38
2022-12-20T15:30:18.846Z,99591.06
2022-12-20T15:32:30.023Z,99584.09
2022-12-20T15:34:37.024Z,99596.53
2022-12-20T15:36:41.226Z,99586.13
2022-12-20T15:39:11.440Z,99601.16
2022-12-20T15:41:18.081Z,99591.69
2022-12-20T15:43:23.574Z,99598.00
2022-12-20T15:45:28.766Z,99602.44
2022-12-20T15:47:32.803Z,99598.22
2022-12-20T15:49:36.722Z,99594.75
2022-12-20T15:51:43.365Z,99591.34
2022-12-20T15:53:47.079Z,99599.38
2022-12-20T15:55:54.890Z,99611.69
2022-12-20T15:58:00.039Z,99611.59
2022-12-20T16:00:05.005Z,99622.22
2022-12-20T16:02:23.793Z,99625.91
2022-12-20T16:04:28.796Z,99620.75
2022-12-20T16:06:33.440Z,99617.38
2022-12-20T16:08:37.503Z,99623.56
2022-12-20T16:10:41.565Z,99633.38
2022-12-20T16:12:45.696Z,99627.34
2022-12-20T16:14:51.959Z,99630.19
2022-12-20T16:16:56.251Z,99638.19
2022-12-20T16:19:00.176Z,99633.88
2022-12-20T16:21:04.610Z,99637.56
2022-12-20T16:23:17.700Z,99638.41
2022-12-20T16:25:30.531Z,99626.19
2022-12-20T16:27:34.280Z,99621.97
2022-12-20T16:29:38.061Z,99626.41
2022-12-20T16:31:44.644Z,99624.81
2022-12-20T16:33:48.522Z,99626.69
2022-12-20T16:35:52.572Z,99625.00
2022-12-20T16:37:57.364Z,99632.06
2022-12-20T16:40:00.939Z,99636.69
2022-12-20T16:42:04.489Z,99634.03
2022-12-20T16:44:08.649Z,99636.69
2022-12-20T16:46:14.432Z,99651.63
2022-12-20T16:48:19.762Z,99642.16
2022-12-20T16:50:25.799Z,99643.09
2022-12-20T16:52:29.902Z,99636.88
2022-12-20T16:54:33.823Z,99629.94
2022-12-20T16:56:38.127Z,99630.13
2022-12-20T16:59:17.227Z,99626.78
2022-12-20T17:01:05.299Z,99640.88
2022-12-20T17:03:10.101Z,99641.09
2022-12-20T17:05:30.874Z,99637.69
2022-12-20T17:07:41.042Z,99642.13
2022-12-20T17:09:45.097Z,99648.13
2022-12-20T17:11:50.430Z,99647.19
2022-12-20T17:13:57.880Z,99650.63
2022-12-20T17:16:01.607Z,99650.47
2022-12-20T17:18:05.691Z,99648.66
2022-12-20T17:20:10.567Z,99644.22
2022-12-20T17:22:25.125Z,99648.66
2022-12-20T17:24:29.274Z,99642.56
2022-12-20T17:26:33.078Z,99652.13
2022-12-20T17:28:37.800Z,99646.13
2022-12-20T17:30:41.769Z,99652.34
2022-12-20T17:32:46.352Z,99652.34
2022-12-20T17:34:50.429Z,99651.59
2022-12-20T17:36:55.700Z,99645.47
2022-12-20T17:39:01.104Z,99638.59
2022-12-20T17:41:05.445Z,99642.97
2022-12-20T17:43:14.344Z,99646.34
2022-12-20T17:45:31.690Z,99651.28
2022-12-20T17:47:35.980Z,99650.47
2022-12-20T17:49:40.348Z,99647.84
2022-12-20T17:51:45.140Z,99658.25
2022-12-20T17:53:51.297Z,99645.94
2022-12-20T17:55:57.650Z,99652.13
2022-12-20T17:58:02.158Z,99658.97
2022-12-20T18:00:07.376Z,99651.09
2022-12-20T18:02:24.597Z,99655.41
2022-12-20T18:04:28.881Z,99660.66
2022-12-20T18:06:34.321Z,99660.66
2022-12-20T18:08:39.296Z,99655.31
2022-12-20T18:10:43.439Z,99660.56
2022-12-20T18:12:48.979Z,99655.31
2022-12-20T18:14:53.282Z,99659.72
2022-12-20T18:16:58.998Z,99665.94
2022-12-20T18:19:04.695Z,99649.50
2022-12-20T18:21:10.744Z,99651.41
2022-12-20T18:23:15.167Z,99662.84
2022-12-20T18:25:19.192Z,99664.88
2022-12-20T18:27:30.173Z,99666.63
2022-12-20T18:29:36.378Z,99668.44
2022-12-20T18:31:41.753Z,99664.91
2022-12-20T18:33:45.871Z,99664.88
2022-12-20T18:35:50.517Z,99661.38
2022-12-20T18:37:54.607Z,99670.13
2022-12-20T18:39:58.385Z,99674.53
2022-12-20T18:42:02.598Z,99671.97
2022-12-20T18:44:08.368Z,99670.16
2022-12-20T18:46:15.495Z,99658.81
2022-12-20T18:48:19.397Z,99656.09
2022-12-20T18:50:23.126Z,99655.81
2022-12-20T18:52:27.515Z,99649.50
2022-12-20T18:54:32.089Z,99650.16
2022-12-20T18:56:39.193Z,99644.88
2022-12-20T18:58:44.246Z,99641.22
2022-12-20T19:00:49.132Z,99633.97
2022-12-20T19:02:59.183Z,99636.50
2022-12-20T19:05:03.905Z,99627.44
2022-12-20T19:07:07.832Z,99623.78
2022-12-20T19:09:14.942Z,99630.59
2022-12-20T19:11:21.496Z,99636.50
2022-12-20T19:13:25.587Z,99631.13
2022-12-20T19:15:29.641Z,99621.38
2022-12-20T19:17:34.256Z,99634.53
2022-12-20T19:19:40.443Z,99637.28
2022-12-20T19:21:45.292Z,99631.91
2022-12-20T19:23:51.508Z,99631.03
2022-12-20T19:25:58.565Z,99625.88
2022-12-20T19:28:07.218Z,99633.88
2022-12-20T19:30:11.691Z,99636.63
2022-12-20T19:32:15.702Z,99636.72
2022-12-20T19:34:19.947Z,99627.25
2022-12-20T19:36:27.697Z,99626.47
2022-12-20T19:38:31.349Z,99632.59
2022-12-20T19:40:35.876Z,99632.72
2022-12-20T19:42:39.920Z,99628.19
2022-12-20T19:44:43.841Z,99626.41
2022-12-20T19:46:47.966Z,99618.69
2022-12-20T19:48:52.327Z,99619.56
2022-12-20T19:51:03.272Z,99614.41
2022-12-20T19:53:13.973Z,99621.44
2022-12-20T19:55:19.605Z,99636.50
2022-12-20T19:57:23.151Z,99619.75
2022-12-20T19:59:27.439Z,99626.81
2022-12-20T20:01:31.464Z,99621.53
2022-12-20T20:03:35.946Z,99634.59
2022-12-20T20:05:41.792Z,99627.44
2022-12-20T20:07:45.502Z,99632.72
2022-12-20T20:09:50.532Z,99624.81
2022-12-20T20:11:54.631Z,99621.16
2022-12-20T20:13:58.304Z,99620.28
2022-12-20T20:16:04.490Z,99621.16
2022-12-20T20:18:08.649Z,99610.50
2022-12-20T20:20:13.038Z,99612.16
2022-12-20T20:22:22.637Z,99603.44
2022-12-20T20:24:27.036Z,99607.00
2022-12-20T20:26:32.989Z,99605.97
2022-12-20T20:28:43.761Z,99598.06
2022-12-20T20:30:51.306Z,99599.00
2022-12-20T20:32:55.061Z,99608.72
2022-12-20T20:34:59.320Z,99600.09
2022-12-20T20:37:03.538Z,99606.19
2022-12-20T20:39:07.866Z,99607.88
2022-12-20T20:41:12.285Z,99595.66
2022-12-20T20:43:17.715Z,99592.09
2022-12-20T20:45:21.655Z,99588.47
2022-12-20T20:47:25.822Z,99597.13
2022-12-20T20:49:29.911Z,99586.59
2022-12-20T20:51:34.700Z,99582.28
2022-12-20T20:53:39.821Z,99593.56
2022-12-20T20:55:44.268Z,99591.97
2022-12-20T20:57:48.516Z,99588.47
2022-12-20T20:59:54.050Z,99592.91
2022-12-20T21:01:58.226Z,99592.91
2022-12-20T21:04:02.710Z,99596.38
2022-12-20T21:08:33.691Z,99591.88
2022-12-20T21:10:37.827Z,99577.78
2022-12-20T21:12:41.524Z,99586.41
2022-12-20T21:15:20.648Z,99586.22
2022-12-20T21:17:12.174Z,99583.47
2022-12-20T21:19:16.504Z,99578.31
2022-12-20T21:21:20.674Z,99578.50
2022-12-20T21:23:24.638Z,99579.47
2022-12-20T21:25:28.375Z,99576.09
2022-12-20T21:27:33.082Z,99567.44
2022-12-20T21:29:36.727Z,99563.97
2022-12-20T21:31:40.829Z,99563.75
2022-12-20T21:33:47.245Z,99570.72
2022-12-20T21:35:54.065Z,99561.88
2022-12-20T21:37:58.522Z,99579.25
2022-12-20T21:40:02.461Z,99568.63
2022-12-20T21:42:06.226Z,99575.47
2022-12-20T21:44:13.511Z,99565.88
2022-12-20T21:46:17.315Z,99565.88
2022-12-20T21:48:21.460Z,99556.28
2022-12-20T21:50:26.333Z,99578.09
2022-12-20T21:52:30.363Z,99572.84
2022-12-20T21:54:35.018Z,99563.03
2022-12-20T21:56:40.852Z,99569.25
2022-12-20T21:58:45.993Z,99566.63
2022-12-20T22:00:54.492Z,99563.25
2022-12-20T22:02:59.278Z,99565.97
2022-12-20T22:05:03.697Z,99563.47
2022-12-20T22:07:09.412Z,99554.81
2022-12-20T22:09:13.314Z,99564.41
2022-12-20T22:11:19.949Z,99543.34
2022-12-20T22:13:25.432Z,99552.19
2022-12-20T22:15:33.776Z,99543.44
2022-12-20T22:17:38.196Z,99536.50
2022-12-20T22:19:46.542Z,99535.66
2022-12-20T22:21:58.002Z,99546.38
2022-12-20T22:24:04.978Z,99531.44
2022-12-20T22:26:12.101Z,99537.53
2022-12-20T22:28:17.249Z,99514.78
2022-12-20T22:30:29.948Z,99520.06
2022-12-20T22:32:37.995Z,99519.13
2022-12-20T22:34:53.360Z,99520.91
2022-12-20T22:37:01.045Z,99518.19
2022-12-20T22:39:17.415Z,99518.19
2022-12-20T22:41:31.099Z,99506.72
2022-12-20T22:43:50.662Z,99508.59
2022-12-20T22:46:12.184Z,99505.03
2022-12-20T22:48:24.005Z,99509.34
2022-12-20T22:50:36.116Z,99503.13
2022-12-20T22:52:43.537Z,99496.91
2022-12-20T22:54:54.206Z,99504.69
2022-12-20T22:57:06.855Z,99499.44
2022-12-20T22:59:11.969Z,99488.91
2022-12-20T23:01:21.081Z,99495.03
2022-12-20T23:03:28.613Z,99491.53
2022-12-20T23:05:34.507Z,99488.91
2022-12-20T23:07:41.753Z,99496.91
2022-12-20T23:09:49.974Z,99505.44
2022-12-20T23:12:15.585Z,99507.97
2022-12-20T23:14:40.804Z,99487.66
2022-12-20T23:16:46.470Z,99505.97
2022-12-20T23:18:52.559Z,99508.38
2022-12-20T23:21:15.287Z,99505.63
2022-12-20T23:23:23.056Z,99495.22
2022-12-20T23:25:29.207Z,99497.09
2022-12-20T23:27:36.928Z,99499.03
2022-12-20T23:29:42.352Z,99497.53
2022-12-20T23:31:48.663Z,99505.56
2022-12-20T23:33:55.237Z,99517.03
2022-12-20T23:35:59.993Z,99509.22
2022-12-20T23:38:04.550Z,99511.22
2022-12-20T23:40:13.199Z,99518.59
2022-12-20T23:42:18.105Z,99525.00
2022-12-20T23:44:25.399Z,99511.34
2022-12-20T23:46:31.654Z,99503.03
2022-12-20T23:48:38.066Z,99500.69
2022-12-20T23:50:43.896Z,99493.19
2022-12-20T23:52:49.784Z,99494.34
2022-12-20T23:54:54.039Z,99497.38
2022-12-20T23:56:57.906Z,99479.38
2022-12-20T23:59:03.135Z,99487.69
